createdAt,value
2019-06-27T00:01:54.605Z,101286.77
2019-06-27T00:04:26.202Z,101281.71
2019-06-27T00:06:57.581Z,101294.13
2019-06-27T00:09:31.924Z,101288.25
2019-06-27T00:12:03.208Z,101288.64
2019-06-27T00:14:34.577Z,101287.64
2019-06-27T00:17:05.975Z,101291.83
2019-06-27T00:19:37.298Z,101300.78
2019-06-27T00:22:08.571Z,101294.22
2019-06-27T00:24:39.870Z,101294.70
2019-06-27T00:27:11.148Z,101302.34
2019-06-27T00:29:42.455Z,101301.13
2019-06-27T00:32:13.764Z,101303.12
2019-06-27T00:34:45.056Z,101307.81
2019-06-27T00:37:16.318Z,101303.92
2019-06-27T00:39:47.630Z,101307.53
2019-06-27T00:42:18.972Z,101309.45
2019-06-27T00:44:50.246Z,101311.83
2019-06-27T00:47:21.552Z,101311.94
2019-06-27T00:49:52.841Z,101308.11
2019-06-27T00:52:24.082Z,101314.03
2019-06-27T00:54:57.631Z,101310.31
2019-06-27T00:57:28.881Z,101311.47
2019-06-27T01:00:00.143Z,101311.48
2019-06-27T01:02:31.350Z,101315.02
2019-06-27T01:05:02.583Z,101315.59
2019-06-27T01:07:33.974Z,101310.93
2019-06-27T01:10:06.105Z,101310.27
2019-06-27T01:12:37.307Z,101314.11
2019-06-27T01:15:09.369Z,101312.97
2019-06-27T01:17:40.625Z,101314.38
2019-06-27T01:20:12.144Z,101314.77
2019-06-27T01:22:43.395Z,101308.09
2019-06-27T01:25:14.698Z,101308.83
2019-06-27T01:27:46.000Z,101307.86
2019-06-27T01:30:19.313Z,101306.44
2019-06-27T01:32:50.561Z,101299.09
2019-06-27T01:35:21.921Z,101302.45
2019-06-27T01:37:53.228Z,101302.81
2019-06-27T01:40:24.475Z,101301.86
2019-06-27T01:42:55.732Z,101299.00
2019-06-27T01:45:47.143Z,101306.53
2019-06-27T01:48:18.410Z,101304.44
2019-06-27T01:50:49.664Z,101312.21
2019-06-27T01:53:20.927Z,101306.81
2019-06-27T01:55:52.204Z,101310.23
2019-06-27T01:58:23.496Z,101313.27
2019-06-27T02:00:54.812Z,101305.64
2019-06-27T02:03:26.081Z,101308.70
2019-06-27T02:05:57.336Z,101301.37
2019-06-27T02:08:28.555Z,101307.84
2019-06-27T02:10:59.808Z,101308.48
2019-06-27T02:13:31.073Z,101310.88
2019-06-27T02:16:02.382Z,101314.09
2019-06-27T02:18:33.950Z,101314.09
2019-06-27T02:21:05.194Z,101321.38
2019-06-27T02:23:36.445Z,101315.25
2019-06-27T02:26:08.036Z,101320.42
2019-06-27T02:28:39.270Z,101325.75
2019-06-27T02:31:10.428Z,101326.81
2019-06-27T02:33:45.715Z,101325.65
2019-06-27T02:36:20.554Z,101332.37
2019-06-27T02:38:51.802Z,101334.38
2019-06-27T02:41:23.020Z,101338.17
2019-06-27T02:43:54.380Z,101344.67
2019-06-27T02:46:25.780Z,101340.73
2019-06-27T02:48:57.113Z,101341.92
2019-06-27T02:51:28.409Z,101347.56
2019-06-27T02:53:59.705Z,101346.92
2019-06-27T02:56:30.987Z,101352.05
2019-06-27T02:59:02.314Z,101348.70
2019-06-27T03:01:33.631Z,101346.51
2019-06-27T03:04:04.978Z,101344.91
2019-06-27T03:06:36.285Z,101342.51
2019-06-27T03:09:08.101Z,101348.05
2019-06-27T03:11:39.379Z,101345.83
2019-06-27T03:14:10.691Z,101350.86
2019-06-27T03:16:42.183Z,101350.13
2019-06-27T03:19:13.563Z,101349.43
2019-06-27T03:21:44.877Z,101351.22
2019-06-27T03:24:16.209Z,101351.98
2019-06-27T03:26:47.514Z,101352.81
2019-06-27T03:29:20.418Z,101356.13
2019-06-27T03:31:51.851Z,101355.52
2019-06-27T03:34:23.181Z,101345.90
2019-06-27T03:36:54.969Z,101351.58
2019-06-27T03:39:26.244Z,101354.66
2019-06-27T03:41:57.529Z,101355.22
2019-06-27T03:44:29.067Z,101356.44
2019-06-27T03:47:00.336Z,101361.77
2019-06-27T03:49:31.694Z,101357.98
2019-06-27T03:52:05.582Z,101360.18
2019-06-27T03:54:37.170Z,101354.95
2019-06-27T03:57:08.480Z,101359.88
2019-06-27T03:59:39.894Z,101362.75
2019-06-27T04:02:11.224Z,101353.89
2019-06-27T04:04:42.560Z,101359.63
2019-06-27T04:07:13.874Z,101360.13
2019-06-27T04:09:45.178Z,101363.66
2019-06-27T04:12:16.545Z,101357.33
2019-06-27T04:14:47.882Z,101355.72
2019-06-27T04:17:19.234Z,101353.98
2019-06-27T04:19:50.905Z,101355.16
2019-06-27T04:22:22.329Z,101362.66
2019-06-27T04:24:53.734Z,101362.38
2019-06-27T04:27:25.102Z,101364.53
2019-06-27T04:29:56.373Z,101368.73
2019-06-27T04:32:28.526Z,101369.20
2019-06-27T04:34:59.967Z,101373.10
2019-06-27T04:37:31.420Z,101367.36
2019-06-27T04:40:02.730Z,101369.16
2019-06-27T04:42:34.028Z,101371.14
2019-06-27T04:45:05.722Z,101371.77
2019-06-27T04:47:36.986Z,101369.91
2019-06-27T04:50:08.479Z,101373.19
2019-06-27T04:52:39.812Z,101370.31
2019-06-27T04:55:11.117Z,101370.14
2019-06-27T04:57:42.409Z,101373.08
2019-06-27T05:00:22.188Z,101371.73
2019-06-27T05:02:53.459Z,101373.99
2019-06-27T05:05:25.148Z,101368.77
2019-06-27T05:07:56.461Z,101371.63
2019-06-27T05:10:27.739Z,101371.94
2019-06-27T05:12:59.055Z,101375.73
2019-06-27T05:15:30.392Z,101375.84
2019-06-27T05:18:01.667Z,101377.57
2019-06-27T05:20:32.973Z,101383.14
2019-06-27T05:23:04.323Z,101384.74
2019-06-27T05:25:35.639Z,101381.88
2019-06-27T05:28:06.920Z,101383.81
2019-06-27T05:30:38.235Z,101377.91
2019-06-27T05:33:09.514Z,101383.28
2019-06-27T05:35:40.753Z,101387.38
2019-06-27T05:38:12.071Z,101390.64
2019-06-27T05:40:43.340Z,101389.72
2019-06-27T05:43:14.651Z,101392.81
2019-06-27T05:45:45.935Z,101388.60
2019-06-27T05:48:17.231Z,101391.27
2019-06-27T05:50:48.482Z,101398.17
2019-06-27T05:53:19.763Z,101394.16
2019-06-27T05:55:51.205Z,101396.66
2019-06-27T05:58:22.508Z,101402.66
2019-06-27T06:00:53.768Z,101403.70
2019-06-27T06:03:25.094Z,101408.75
2019-06-27T06:05:56.351Z,101398.56
2019-06-27T06:08:27.619Z,101408.67
2019-06-27T06:10:58.971Z,101409.65
2019-06-27T06:13:30.264Z,101414.30
2019-06-27T06:16:01.695Z,101410.70
2019-06-27T06:18:32.985Z,101421.95
2019-06-27T06:21:04.275Z,101419.19
2019-06-27T06:23:35.530Z,101417.07
2019-06-27T06:26:06.858Z,101416.61
2019-06-27T06:28:38.179Z,101424.41
2019-06-27T06:31:09.498Z,101422.23
2019-06-27T06:33:40.833Z,101420.22
2019-06-27T06:36:12.191Z,101428.63
2019-06-27T06:38:43.501Z,101429.97
2019-06-27T06:41:14.876Z,101437.41
2019-06-27T06:43:46.179Z,101436.54
2019-06-27T06:46:17.484Z,101436.93
2019-06-27T06:48:52.104Z,101450.59
2019-06-27T06:51:23.411Z,101444.27
2019-06-27T06:53:54.681Z,101442.00
2019-06-27T06:56:26.226Z,101442.64
2019-06-27T06:58:57.518Z,101443.78
2019-06-27T07:01:28.836Z,101442.77
2019-06-27T07:04:00.111Z,101453.94
2019-06-27T07:06:31.422Z,101458.44
2019-06-27T07:09:02.742Z,101455.11
2019-06-27T07:11:34.010Z,101454.87
2019-06-27T07:14:05.295Z,101456.55
2019-06-27T07:16:36.657Z,101453.83
2019-06-27T07:19:07.936Z,101458.89
2019-06-27T07:21:39.262Z,101455.34
2019-06-27T07:24:10.567Z,101451.49
2019-06-27T07:26:42.062Z,101451.72
2019-06-27T07:29:13.329Z,101447.61
2019-06-27T07:31:44.656Z,101453.33
2019-06-27T07:34:15.977Z,101456.72
2019-06-27T07:36:47.255Z,101459.13
2019-06-27T07:39:18.649Z,101453.73
2019-06-27T07:41:49.968Z,101453.25
2019-06-27T07:44:21.241Z,101455.14
2019-06-27T07:46:52.543Z,101454.03
2019-06-27T07:49:23.819Z,101455.79
2019-06-27T07:51:55.168Z,101452.88
2019-06-27T07:54:26.514Z,101454.81
2019-06-27T07:56:57.793Z,101456.36
2019-06-27T07:59:29.121Z,101456.22
2019-06-27T08:02:00.598Z,101448.50
2019-06-27T08:04:33.271Z,101447.18
2019-06-27T08:07:04.622Z,101447.84
2019-06-27T08:09:36.007Z,101455.33
2019-06-27T08:12:07.345Z,101457.80
2019-06-27T08:14:47.930Z,101450.67
2019-06-27T08:17:19.220Z,101451.08
2019-06-27T08:22:48.856Z,101444.25
2019-06-27T08:25:20.383Z,101441.95
2019-06-27T08:27:53.741Z,101446.73
2019-06-27T08:30:25.160Z,101441.84
2019-06-27T08:32:56.449Z,101438.67
2019-06-27T08:35:27.710Z,101437.77
2019-06-27T08:37:59.034Z,101432.08
2019-06-27T08:40:30.328Z,101441.74
2019-06-27T08:43:02.623Z,101439.91
2019-06-27T08:45:33.868Z,101439.39
2019-06-27T08:48:05.199Z,101436.38
2019-06-27T08:50:36.486Z,101440.20
2019-06-27T08:53:08.362Z,101441.97
2019-06-27T08:55:39.657Z,101443.16
2019-06-27T08:58:12.670Z,101442.31
2019-06-27T09:00:45.942Z,101446.84
2019-06-27T09:03:23.973Z,101446.21
2019-06-27T09:05:55.382Z,101442.64
2019-06-27T09:08:26.808Z,101440.23
2019-06-27T09:11:03.687Z,101435.72
2019-06-27T09:13:38.549Z,101432.65
2019-06-27T09:16:10.997Z,101444.23
2019-06-27T09:19:30.543Z,101435.86
2019-06-27T09:22:32.003Z,101439.70
2019-06-27T09:25:07.704Z,101433.41
2019-06-27T09:27:44.526Z,101431.41
2019-06-27T09:30:21.064Z,101436.86
2019-06-27T09:32:55.496Z,101432.78
2019-06-27T09:35:26.968Z,101431.95
2019-06-27T09:38:05.045Z,101435.33
2019-06-27T09:40:40.131Z,101436.21
2019-06-27T09:43:11.870Z,101432.80
2019-06-27T09:45:44.113Z,101428.05
2019-06-27T09:48:25.993Z,101421.40
2019-06-27T09:50:58.604Z,101429.48
2019-06-27T09:53:39.803Z,101426.19
2019-06-27T09:56:19.219Z,101423.37
2019-06-27T09:58:56.333Z,101419.57
2019-06-27T10:01:29.530Z,101419.11
2019-06-27T10:04:13.601Z,101416.78
2019-06-27T10:06:49.412Z,101424.66
2019-06-27T10:09:43.689Z,101419.32
2019-06-27T10:12:23.622Z,101418.66
2019-06-27T10:15:05.984Z,101419.45
2019-06-27T10:17:39.572Z,101420.83
2019-06-27T10:20:19.546Z,101423.99
2019-06-27T10:23:07.817Z,101419.28
2019-06-27T10:25:42.206Z,101416.41
2019-06-27T10:28:30.721Z,101419.54
2019-06-27T10:31:17.018Z,101416.73
2019-06-27T10:33:58.609Z,101416.75
2019-06-27T10:36:46.355Z,101416.28
2019-06-27T10:39:28.965Z,101416.27
2019-06-27T10:42:18.439Z,101415.40
2019-06-27T10:44:56.125Z,101413.52
2019-06-27T10:47:39.083Z,101410.10
2019-06-27T10:50:23.418Z,101413.70
2019-06-27T10:53:00.151Z,101402.47
2019-06-27T10:55:55.741Z,101405.52
2019-06-27T10:58:38.420Z,101402.81
2019-06-27T11:01:17.814Z,101401.38
2019-06-27T11:04:06.499Z,101402.36
2019-06-27T11:15:44.431Z,101394.17
2019-06-27T11:19:00.974Z,101391.71
2019-06-27T11:22:00.116Z,101385.27
2019-06-27T11:24:35.209Z,101380.73
2019-06-27T11:27:44.685Z,101387.81
2019-06-27T11:30:17.850Z,101383.80
2019-06-27T11:33:06.406Z,101383.22
2019-06-27T11:35:38.104Z,101373.20
2019-06-27T11:38:09.388Z,101371.30
2019-06-27T11:40:41.117Z,101377.12
2019-06-27T11:43:12.497Z,101372.16
2019-06-27T11:45:43.874Z,101372.52
2019-06-27T11:48:15.197Z,101361.59
2019-06-27T11:50:46.487Z,101366.41
2019-06-27T11:53:17.787Z,101366.50
2019-06-27T11:56:26.818Z,101362.16
2019-06-27T11:58:58.161Z,101361.41
2019-06-27T12:01:29.927Z,101355.52
2019-06-27T12:04:01.405Z,101353.05
2019-06-27T12:06:32.745Z,101349.33
2019-06-27T12:09:06.504Z,101345.14
2019-06-27T12:11:43.919Z,101349.34
2019-06-27T12:14:15.260Z,101348.28
2019-06-27T12:16:58.935Z,101348.08
2019-06-27T12:20:25.800Z,101338.14
2019-06-27T12:23:13.136Z,101336.84
2019-06-27T12:26:32.439Z,101339.25
2019-06-27T12:29:26.113Z,101343.98
2019-06-27T12:32:04.825Z,101333.86
2019-06-27T12:34:42.386Z,101329.38
2019-06-27T12:37:13.710Z,101330.99
2019-06-27T12:39:55.921Z,101328.05
2019-06-27T12:42:34.608Z,101326.03
2019-06-27T12:45:08.441Z,101327.98
2019-06-27T12:47:39.830Z,101318.34
2019-06-27T12:50:19.303Z,101315.82
2019-06-27T12:52:52.104Z,101315.34
2019-06-27T12:55:31.388Z,101314.65
2019-06-27T12:58:09.336Z,101311.06
2019-06-27T13:01:01.407Z,101307.21
2019-06-27T13:03:32.908Z,101311.98
2019-06-27T13:06:06.915Z,101307.75
2019-06-27T13:08:39.716Z,101308.13
2019-06-27T13:11:29.330Z,101305.45
2019-06-27T13:14:01.355Z,101305.20
2019-06-27T13:16:33.856Z,101297.74
2019-06-27T13:19:06.234Z,101298.41
2019-06-27T13:21:39.595Z,101295.31
2019-06-27T13:24:12.617Z,101300.58
2019-06-27T13:27:07.966Z,101297.16
2019-06-27T13:29:44.608Z,101295.43
2019-06-27T13:32:18.537Z,101290.63
2019-06-27T13:34:53.401Z,101284.92
2019-06-27T13:37:42.882Z,101284.25
2019-06-27T13:43:38.021Z,101274.02
2019-06-27T13:46:12.972Z,101275.98
2019-06-27T13:48:55.787Z,101266.04
2019-06-27T13:51:52.419Z,101269.98
2019-06-27T13:54:39.514Z,101265.80
2019-06-27T13:57:25.094Z,101264.27
2019-06-27T14:03:08.798Z,101248.20
2019-06-27T14:06:11.037Z,101250.67
2019-06-27T14:08:43.319Z,101248.93
2019-06-27T14:11:43.474Z,101250.14
2019-06-27T14:14:21.872Z,101248.32
2019-06-27T14:17:34.993Z,101240.11
2019-06-27T14:24:54.459Z,101241.61
2019-06-27T14:27:27.303Z,101245.00
2019-06-27T14:30:04.645Z,101239.28
2019-06-27T14:32:36.908Z,101244.86
2019-06-27T14:35:15.493Z,101237.06
2019-06-27T14:37:41.829Z,101233.31
2019-06-27T14:40:13.706Z,101242.08
2019-06-27T14:42:46.464Z,101237.46
2019-06-27T14:45:21.430Z,101240.47
2019-06-27T14:48:04.849Z,101242.00
2019-06-27T14:50:40.474Z,101234.57
2019-06-27T14:56:39.954Z,101226.78
2019-06-27T14:59:22.748Z,101224.12
2019-06-27T15:01:57.433Z,101228.27
2019-06-27T15:04:53.792Z,101224.55
2019-06-27T15:07:31.456Z,101219.59
2019-06-27T15:10:50.835Z,101215.41
2019-06-27T15:13:46.206Z,101219.16
2019-06-27T15:16:49.475Z,101215.86
2019-06-27T15:19:37.955Z,101212.42
2019-06-27T15:22:36.413Z,101208.91
2019-06-27T15:25:05.613Z,101197.47
2019-06-27T15:28:09.746Z,101202.61
2019-06-27T15:30:58.925Z,101206.27
2019-06-27T15:34:00.459Z,101208.06
2019-06-27T15:37:05.628Z,101206.36
2019-06-27T15:44:36.745Z,101212.61
2019-06-27T15:47:09.232Z,101202.67
2019-06-27T15:49:40.598Z,101199.27
2019-06-27T15:52:11.936Z,101199.24
2019-06-27T15:54:43.221Z,101201.48
2019-06-27T15:57:14.590Z,101195.64
2019-06-27T15:59:45.891Z,101188.23
2019-06-27T16:02:17.222Z,101191.02
2019-06-27T16:04:48.518Z,101196.91
2019-06-27T16:07:19.859Z,101192.33
2019-06-27T16:09:52.741Z,101185.25
2019-06-27T16:12:25.240Z,101190.04
2019-06-27T16:14:56.552Z,101190.42
2019-06-27T16:17:27.887Z,101186.50
2019-06-27T16:19:59.174Z,101176.88
2019-06-27T16:22:30.500Z,101175.73
2019-06-27T16:25:01.807Z,101174.12
2019-06-27T16:27:33.153Z,101174.88
2019-06-27T16:30:04.829Z,101171.75
2019-06-27T16:32:36.100Z,101169.39
2019-06-27T16:35:07.565Z,101168.05
2019-06-27T16:37:38.839Z,101171.82
2019-06-27T16:40:10.942Z,101170.15
2019-06-27T16:42:42.288Z,101173.59
2019-06-27T16:45:14.383Z,101173.45
2019-06-27T16:47:48.444Z,101170.91
2019-06-27T16:50:19.267Z,101170.73
2019-06-27T16:52:50.621Z,101172.59
2019-06-27T16:55:22.354Z,101172.75
2019-06-27T16:57:53.664Z,101175.75
2019-06-27T17:00:26.159Z,101169.11
2019-06-27T17:02:57.496Z,101168.78
2019-06-27T17:05:28.904Z,101173.53
2019-06-27T17:08:04.501Z,101173.13
2019-06-27T17:10:35.866Z,101171.73
2019-06-27T17:13:07.220Z,101174.70
2019-06-27T17:15:38.565Z,101179.00
2019-06-27T17:18:09.908Z,101176.77
2019-06-27T17:20:41.244Z,101174.46
2019-06-27T17:23:12.580Z,101171.20
2019-06-27T17:25:43.966Z,101170.11
2019-06-27T17:28:15.278Z,101169.84
2019-06-27T17:30:46.701Z,101176.73
2019-06-27T17:33:21.007Z,101173.78
2019-06-27T17:35:52.277Z,101174.41
2019-06-27T17:38:23.624Z,101173.61
2019-06-27T17:40:54.971Z,101171.96
2019-06-27T17:43:26.354Z,101174.83
2019-06-27T17:45:57.665Z,101175.40
2019-06-27T17:48:28.975Z,101178.30
2019-06-27T17:51:01.129Z,101174.83
2019-06-27T17:53:32.453Z,101168.95
2019-06-27T17:56:03.905Z,101173.89
2019-06-27T17:58:35.205Z,101176.34
2019-06-27T18:01:06.535Z,101174.77
2019-06-27T18:07:28.220Z,101181.23
2019-06-27T18:09:59.694Z,101179.09
2019-06-27T18:17:33.439Z,101180.19
2019-06-27T18:19:59.605Z,101185.52
2019-06-27T18:22:30.992Z,101183.09
2019-06-27T18:25:02.413Z,101176.84
2019-06-27T18:27:33.755Z,101184.61
2019-06-27T18:30:05.548Z,101180.83
2019-06-27T18:32:38.355Z,101176.30
2019-06-27T18:35:10.105Z,101175.21
2019-06-27T18:37:41.426Z,101180.87
2019-06-27T18:40:13.155Z,101181.59
2019-06-27T18:42:44.497Z,101184.56
2019-06-27T18:45:15.818Z,101176.03
2019-06-27T18:47:47.227Z,101179.03
2019-06-27T18:50:19.219Z,101174.73
2019-06-27T18:52:50.588Z,101172.09
2019-06-27T18:55:21.876Z,101174.94
2019-06-27T18:57:53.154Z,101176.44
2019-06-27T19:00:25.218Z,101172.14
2019-06-27T19:02:56.528Z,101169.43
2019-06-27T19:05:27.838Z,101167.55
2019-06-27T19:07:59.158Z,101175.96
2019-06-27T19:10:30.534Z,101166.34
2019-06-27T19:13:01.829Z,101178.06
2019-06-27T19:15:33.152Z,101178.12
2019-06-27T19:18:06.144Z,101176.77
2019-06-27T19:20:43.524Z,101177.61
2019-06-27T19:23:36.714Z,101186.49
2019-06-27T19:26:08.053Z,101187.47
2019-06-27T19:28:42.283Z,101191.70
2019-06-27T19:31:17.118Z,101194.17
2019-06-27T19:33:48.421Z,101191.14
2019-06-27T19:36:19.806Z,101187.38
2019-06-27T19:38:51.147Z,101193.06
2019-06-27T19:41:22.429Z,101189.42
2019-06-27T19:43:53.789Z,101195.92
2019-06-27T19:46:27.818Z,101195.65
2019-06-27T19:48:58.241Z,101202.48
2019-06-27T19:51:29.870Z,101208.34
2019-06-27T19:54:01.181Z,101210.55
2019-06-27T19:56:32.498Z,101207.13
2019-06-27T19:59:03.858Z,101209.19
2019-06-27T20:01:35.186Z,101213.08
2019-06-27T20:04:06.502Z,101219.25
2019-06-27T20:06:40.513Z,101224.34
2019-06-27T20:09:11.905Z,101220.63
2019-06-27T20:11:43.213Z,101228.67
2019-06-27T20:14:14.491Z,101235.95
2019-06-27T20:16:45.799Z,101235.30
2019-06-27T20:19:17.109Z,101238.19
2019-06-27T20:21:48.416Z,101230.00
2019-06-27T20:24:21.906Z,101235.05
2019-06-27T20:26:52.729Z,101233.91
2019-06-27T20:29:24.114Z,101232.00
2019-06-27T20:31:55.415Z,101245.26
2019-06-27T20:34:26.727Z,101241.98
2019-06-27T20:37:00.401Z,101243.37
2019-06-27T20:39:31.669Z,101242.19
2019-06-27T20:42:03.042Z,101245.58
2019-06-27T20:44:34.386Z,101240.11
2019-06-27T20:47:05.705Z,101252.64
2019-06-27T20:49:37.068Z,101249.42
2019-06-27T20:52:08.366Z,101244.98
2019-06-27T20:54:39.684Z,101249.33
2019-06-27T20:57:10.976Z,101250.45
2019-06-27T20:59:42.230Z,101245.26
2019-06-27T21:02:13.507Z,101254.80
2019-06-27T21:04:44.787Z,101250.20
2019-06-27T21:07:16.094Z,101241.11
2019-06-27T21:09:47.354Z,101243.70
2019-06-27T21:12:20.472Z,101246.38
2019-06-27T21:14:51.707Z,101247.71
2019-06-27T21:17:22.973Z,101240.39
2019-06-27T21:19:54.516Z,101252.20
2019-06-27T21:22:25.789Z,101251.59
2019-06-27T21:25:00.584Z,101247.92
2019-06-27T21:27:31.918Z,101250.73
2019-06-27T21:30:03.258Z,101252.77
2019-06-27T21:32:34.631Z,101250.23
2019-06-27T21:35:06.239Z,101247.74
2019-06-27T21:37:37.540Z,101251.47
2019-06-27T21:40:10.596Z,101256.47
2019-06-27T21:42:41.895Z,101253.50
2019-06-27T21:45:13.584Z,101251.06
2019-06-27T21:47:46.162Z,101246.56
2019-06-27T21:50:18.878Z,101248.23
2019-06-27T21:52:50.174Z,101248.71
2019-06-27T21:55:21.487Z,101247.02
2019-06-27T21:57:52.772Z,101259.04
2019-06-27T22:00:26.427Z,101255.75
2019-06-27T22:02:57.715Z,101248.83
2019-06-27T22:05:29.037Z,101253.70
2019-06-27T22:08:00.445Z,101258.94
2019-06-27T22:10:31.794Z,101259.63
2019-06-27T22:13:03.115Z,101251.72
2019-06-27T22:15:34.485Z,101256.30
2019-06-27T22:18:05.802Z,101246.05
2019-06-27T22:20:39.575Z,101259.61
2019-06-27T22:23:10.170Z,101259.30
2019-06-27T22:25:41.462Z,101257.88
2019-06-27T22:28:12.736Z,101253.28
2019-06-27T22:30:44.081Z,101256.97
2019-06-27T22:33:15.403Z,101256.90
2019-06-27T22:35:46.709Z,101255.08
2019-06-27T22:38:35.880Z,101258.16
2019-06-27T22:41:24.747Z,101248.83
2019-06-27T22:44:14.142Z,101255.21
2019-06-27T22:47:02.925Z,101256.81
2019-06-27T22:49:33.462Z,101257.18
2019-06-27T22:52:23.131Z,101259.14
2019-06-27T22:54:57.798Z,101255.61
2019-06-27T22:57:29.097Z,101251.32
2019-06-27T23:00:00.400Z,101254.02
2019-06-27T23:02:31.681Z,101248.02
2019-06-27T23:05:02.910Z,101247.05
2019-06-27T23:07:34.160Z,101243.33
2019-06-27T23:10:05.627Z,101247.48
2019-06-27T23:12:36.867Z,101242.02
2019-06-27T23:15:08.472Z,101234.64
2019-06-27T23:17:39.715Z,101242.27
2019-06-27T23:20:11.541Z,101241.09
2019-06-27T23:22:42.876Z,101245.66
2019-06-27T23:25:14.166Z,101249.08
2019-06-27T23:27:45.431Z,101246.47
2019-06-27T23:30:16.711Z,101249.14
2019-06-27T23:32:48.008Z,101250.20
2019-06-27T23:35:19.326Z,101249.80
2019-06-27T23:37:50.625Z,101245.81
2019-06-27T23:40:22.219Z,101242.08
2019-06-27T23:42:53.513Z,101240.94
2019-06-27T23:45:24.834Z,101237.15
2019-06-27T23:47:56.102Z,101237.50
2019-06-27T23:50:27.391Z,101231.16
2019-06-27T23:52:58.708Z,101226.95
2019-06-27T23:55:30.032Z,101222.91
2019-06-27T23:58:01.316Z,101215.73
